GAF20 EDDK-EDDF
Flight info
| Callsign | GAF20 |
|---|---|
| Flight time | N/A |
| Altitude | 15000 |
| Route | COL4B COL T911 ROLIS ROLIS5D |
| Aircraft | C700/M-SBDGHM1RWXY/LB2 |
Departure
| Time | 2026-04-26 19:10 |
|---|---|
| Airport | Cologne Bonn Airport (EDDK) |
Arrival
| Time | N/A |
|---|---|
| Airport | Frankfurt Main Airport (EDDF) |
| Time | Latitude | Longitude | Altitude | Speed | Heading |
|---|---|---|---|---|---|
| 2026-04-26 18:48 | 50.86686 | 7.11935 | 228 ft | 0 kts | 255° |
| 2026-04-26 18:49 | 50.86688 | 7.11945 | 228 ft | 2 kts | 220° |
| 2026-04-26 18:49 | 50.86688 | 7.11948 | 228 ft | 0 kts | 128° |
| 2026-04-26 18:49 | 50.86688 | 7.11949 | 228 ft | 0 kts | 102° |
| 2026-04-26 18:50 | 50.86688 | 7.11947 | 228 ft | 1 kts | 77° |
| 2026-04-26 19:06 | 50.86689 | 7.11948 | 226 ft | 0 kts | 77° |
| 2026-04-26 19:06 | 50.86695 | 7.11993 | 229 ft | 9 kts | 77° |
| 2026-04-26 19:07 | 50.86705 | 7.12141 | 226 ft | 18 kts | 112° |
| 2026-04-26 19:07 | 50.86633 | 7.12175 | 225 ft | 13 kts | 170° |
| 2026-04-26 19:07 | 50.86533 | 7.12216 | 228 ft | 16 kts | 166° |
| 2026-04-26 19:07 | 50.86412 | 7.12264 | 227 ft | 19 kts | 165° |
| 2026-04-26 19:08 | 50.86272 | 7.12319 | 230 ft | 21 kts | 167° |
| 2026-04-26 19:08 | 50.86178 | 7.12346 | 234 ft | 9 kts | 168° |
| 2026-04-26 19:08 | 50.86153 | 7.12355 | 234 ft | 0 kts | 167° |
| 2026-04-26 19:09 | 50.86151 | 7.12356 | 234 ft | 6 kts | 167° |
| 2026-04-26 19:09 | 50.86073 | 7.12385 | 237 ft | 13 kts | 164° |
| 2026-04-26 19:09 | 50.86052 | 7.12503 | 239 ft | 14 kts | 66° |
| 2026-04-26 19:09 | 50.86186 | 7.12939 | 237 ft | 91 kts | 64° |
| 2026-04-26 19:10 | 50.86569 | 7.14237 | 339 ft | 158 kts | 65° |
| 2026-04-26 19:10 | 50.87057 | 7.15811 | 1305 ft | 162 kts | 63° |
| 2026-04-26 19:10 | 50.87512 | 7.17451 | 2394 ft | 163 kts | 64° |
| 2026-04-26 19:10 | 50.88040 | 7.19172 | 3196 ft | 186 kts | 63° |
| 2026-04-26 19:11 | 50.88629 | 7.21144 | 3878 ft | 211 kts | 63° |
| 2026-04-26 19:11 | 50.89283 | 7.23380 | 4699 ft | 233 kts | 64° |
| 2026-04-26 19:11 | 50.89872 | 7.25900 | 5259 ft | 251 kts | 78° |
| 2026-04-26 19:11 | 50.89871 | 7.28635 | 5277 ft | 246 kts | 96° |
| 2026-04-26 19:12 | 50.89373 | 7.31190 | 5273 ft | 242 kts | 115° |
| 2026-04-26 19:12 | 50.88496 | 7.33471 | 5270 ft | 243 kts | 122° |
| 2026-04-26 19:12 | 50.87606 | 7.35750 | 5273 ft | 244 kts | 120° |
| 2026-04-26 19:12 | 50.86718 | 7.38049 | 5274 ft | 245 kts | 121° |
| 2026-04-26 19:13 | 50.85807 | 7.40384 | 6028 ft | 251 kts | 121° |
| 2026-04-26 19:13 | 50.84892 | 7.42721 | 7575 ft | 255 kts | 120° |
| 2026-04-26 19:13 | 50.83951 | 7.45130 | 9151 ft | 258 kts | 120° |
| 2026-04-26 19:13 | 50.82992 | 7.47588 | 10615 ft | 267 kts | 120° |
| 2026-04-26 19:14 | 50.82004 | 7.50109 | 12055 ft | 272 kts | 121° |
| 2026-04-26 19:14 | 50.80979 | 7.52724 | 13183 ft | 293 kts | 121° |
| 2026-04-26 19:14 | 50.79885 | 7.55514 | 13256 ft | 296 kts | 121° |
| 2026-04-26 19:14 | 50.79127 | 7.57316 | 13255 ft | 288 kts | 127° |
| 2026-04-26 19:15 | 50.77167 | 7.60046 | 13259 ft | 286 kts | 149° |
| 2026-04-26 19:15 | 50.75369 | 7.61344 | 14543 ft | 280 kts | 159° |
| 2026-04-26 19:15 | 50.73530 | 7.62593 | 15243 ft | 305 kts | 157° |
| 2026-04-26 19:15 | 50.71603 | 7.63939 | 15257 ft | 297 kts | 158° |
| 2026-04-26 19:16 | 50.69740 | 7.65175 | 15254 ft | 286 kts | 159° |
| 2026-04-26 19:16 | 50.67921 | 7.66449 | 15247 ft | 285 kts | 153° |
| 2026-04-26 19:16 | 50.66228 | 7.68086 | 15248 ft | 285 kts | 147° |
| 2026-04-26 19:16 | 50.64567 | 7.69735 | 15249 ft | 279 kts | 150° |
| 2026-04-26 19:17 | 50.62882 | 7.71219 | 15027 ft | 275 kts | 152° |
| 2026-04-26 19:17 | 50.61248 | 7.72646 | 14941 ft | 264 kts | 152° |
| 2026-04-26 19:17 | 50.59659 | 7.74081 | 14631 ft | 264 kts | 151° |
| 2026-04-26 19:17 | 50.58075 | 7.75511 | 14343 ft | 262 kts | 151° |
| 2026-04-26 19:18 | 50.56495 | 7.76928 | 14063 ft | 261 kts | 152° |
| 2026-04-26 19:18 | 50.54918 | 7.78338 | 13759 ft | 260 kts | 151° |
| 2026-04-26 19:18 | 50.53347 | 7.79747 | 13448 ft | 259 kts | 151° |
| 2026-04-26 19:18 | 50.51786 | 7.81143 | 12830 ft | 269 kts | 151° |
| 2026-04-26 19:19 | 50.50107 | 7.82644 | 12195 ft | 280 kts | 151° |
| 2026-04-26 19:19 | 50.48439 | 7.84136 | 11860 ft | 277 kts | 151° |
| 2026-04-26 19:19 | 50.46765 | 7.85631 | 11480 ft | 276 kts | 151° |
| 2026-04-26 19:19 | 50.45100 | 7.87115 | 11112 ft | 275 kts | 151° |
| 2026-04-26 19:20 | 50.43440 | 7.88596 | 10758 ft | 273 kts | 150° |
| 2026-04-26 19:20 | 50.42322 | 7.89592 | 10519 ft | 273 kts | 150° |
| 2026-04-26 19:20 | 50.40153 | 7.91521 | 10268 ft | 265 kts | 150° |
| 2026-04-26 19:20 | 50.38563 | 7.92936 | 10269 ft | 264 kts | 150° |
| 2026-04-26 19:21 | 50.36943 | 7.94374 | 10257 ft | 271 kts | 150° |
| 2026-04-26 19:21 | 50.35296 | 7.95838 | 10262 ft | 274 kts | 150° |
| 2026-04-26 19:21 | 50.33643 | 7.97303 | 10265 ft | 272 kts | 150° |
| 2026-04-26 19:21 | 50.31991 | 7.98766 | 10263 ft | 272 kts | 150° |
| 2026-04-26 19:22 | 50.30348 | 8.00223 | 10264 ft | 272 kts | 150° |
| 2026-04-26 19:22 | 50.28703 | 8.01681 | 10262 ft | 271 kts | 150° |
| 2026-04-26 19:22 | 50.27241 | 8.03519 | 10252 ft | 271 kts | 130° |
| 2026-04-26 19:22 | 50.26185 | 8.05890 | 10256 ft | 269 kts | 115° |
| 2026-04-26 19:23 | 50.25576 | 8.08625 | 10254 ft | 267 kts | 101° |
| 2026-04-26 19:23 | 50.25137 | 8.11448 | 10250 ft | 267 kts | 102° |
| 2026-04-26 19:23 | 50.24667 | 8.14296 | 10260 ft | 267 kts | 102° |
| 2026-04-26 19:23 | 50.24219 | 8.17070 | 10254 ft | 267 kts | 101° |
| 2026-04-26 19:24 | 50.23765 | 8.19896 | 10255 ft | 268 kts | 102° |
| 2026-04-26 19:24 | 50.23310 | 8.22718 | 10261 ft | 268 kts | 102° |
| 2026-04-26 19:24 | 50.22390 | 8.28391 | 10213 ft | 271 kts | 102° |
| 2026-04-26 19:25 | 50.21926 | 8.31240 | 10087 ft | 270 kts | 102° |
| 2026-04-26 19:25 | 50.21621 | 8.33118 | 10018 ft | 267 kts | 102° |
| 2026-04-26 19:25 | 50.20709 | 8.36666 | 9712 ft | 265 kts | 122° |
| 2026-04-26 19:25 | 50.19504 | 8.38838 | 9342 ft | 265 kts | 138° |
| 2026-04-26 19:26 | 50.17967 | 8.40400 | 9004 ft | 262 kts | 155° |
| 2026-04-26 19:26 | 50.16264 | 8.41345 | 8448 ft | 259 kts | 167° |
| 2026-04-26 19:26 | 50.14485 | 8.41545 | 7941 ft | 255 kts | 186° |
| 2026-04-26 19:26 | 50.12766 | 8.41020 | 7426 ft | 251 kts | 202° |
| 2026-04-26 19:27 | 50.11247 | 8.39750 | 6935 ft | 245 kts | 219° |
| 2026-04-26 19:27 | 50.10054 | 8.37941 | 6442 ft | 241 kts | 235° |
| 2026-04-26 19:27 | 50.09224 | 8.35718 | 5931 ft | 236 kts | 250° |
| 2026-04-26 19:27 | 50.08663 | 8.33325 | 5414 ft | 234 kts | 252° |
| 2026-04-26 19:28 | 50.08076 | 8.30966 | 4908 ft | 234 kts | 251° |
| 2026-04-26 19:28 | 50.07498 | 8.28605 | 4414 ft | 232 kts | 252° |
| 2026-04-26 19:28 | 50.06930 | 8.26257 | 4017 ft | 228 kts | 251° |
| 2026-04-26 19:28 | 50.06382 | 8.24011 | 4006 ft | 222 kts | 252° |
| 2026-04-26 19:29 | 50.05828 | 8.21714 | 4003 ft | 231 kts | 252° |
| 2026-04-26 19:29 | 50.05254 | 8.19370 | 4004 ft | 233 kts | 252° |
| 2026-04-26 19:29 | 50.04677 | 8.17006 | 4007 ft | 232 kts | 252° |
| 2026-04-26 19:29 | 50.04102 | 8.14655 | 4008 ft | 232 kts | 251° |
| 2026-04-26 19:30 | 50.03528 | 8.12306 | 4006 ft | 232 kts | 252° |
| 2026-04-26 19:30 | 50.02999 | 8.10011 | 4005 ft | 218 kts | 252° |
| 2026-04-26 19:30 | 50.02100 | 8.08221 | 4000 ft | 210 kts | 214° |
| 2026-04-26 19:30 | 50.01175 | 8.07733 | 4003 ft | 219 kts | 187° |
| 2026-04-26 19:31 | 49.99294 | 8.08745 | 4003 ft | 219 kts | 135° |
| 2026-04-26 19:31 | 49.98355 | 8.10596 | 4016 ft | 218 kts | 123° |
| 2026-04-26 19:31 | 49.97469 | 8.12499 | 4018 ft | 214 kts | 124° |
| 2026-04-26 19:31 | 49.96412 | 8.13940 | 3995 ft | 202 kts | 155° |
| 2026-04-26 19:32 | 49.95115 | 8.14575 | 3999 ft | 190 kts | 159° |
| 2026-04-26 19:32 | 49.94165 | 8.15886 | 3995 ft | 185 kts | 112° |
| 2026-04-26 19:32 | 49.93793 | 8.17786 | 4000 ft | 185 kts | 102° |
| 2026-04-26 19:32 | 49.93423 | 8.19704 | 4003 ft | 185 kts | 104° |
| 2026-04-26 19:33 | 49.93057 | 8.21626 | 4008 ft | 186 kts | 103° |
| 2026-04-26 19:33 | 49.92771 | 8.23571 | 3996 ft | 182 kts | 86° |
| 2026-04-26 19:33 | 49.93234 | 8.25294 | 4001 ft | 173 kts | 45° |
| 2026-04-26 19:33 | 49.94069 | 8.26605 | 3884 ft | 168 kts | 43° |
| 2026-04-26 19:34 | 49.94869 | 8.27925 | 3306 ft | 167 kts | 44° |
| 2026-04-26 19:34 | 49.95664 | 8.29204 | 2621 ft | 166 kts | 43° |
| 2026-04-26 19:34 | 49.96411 | 8.30421 | 2499 ft | 149 kts | 43° |
| 2026-04-26 19:34 | 49.97153 | 8.31632 | 2497 ft | 157 kts | 43° |
| 2026-04-26 19:35 | 49.97904 | 8.32857 | 2501 ft | 156 kts | 43° |
| 2026-04-26 19:35 | 49.98509 | 8.34243 | 2498 ft | 160 kts | 69° |
| 2026-04-26 19:35 | 49.98732 | 8.35959 | 2501 ft | 163 kts | 74° |
| 2026-04-26 19:35 | 49.98982 | 8.37678 | 2491 ft | 163 kts | 73° |
| 2026-04-26 19:36 | 49.99268 | 8.39375 | 2466 ft | 162 kts | 68° |
| 2026-04-26 19:36 | 49.99376 | 8.39943 | 2449 ft | 163 kts | 68° |
| 2026-04-26 19:36 | 50.00005 | 8.42690 | 2257 ft | 162 kts | 56° |
| 2026-04-26 19:36 | 50.00510 | 8.44245 | 2025 ft | 160 kts | 63° |
| 2026-04-26 19:37 | 50.00919 | 8.45855 | 1793 ft | 159 kts | 71° |
| 2026-04-26 19:37 | 50.01273 | 8.47478 | 1574 ft | 161 kts | 68° |
| 2026-04-26 19:37 | 50.01683 | 8.49075 | 1329 ft | 160 kts | 60° |
| 2026-04-26 19:37 | 50.02101 | 8.50694 | 1026 ft | 158 kts | 68° |
| 2026-04-26 19:38 | 50.02494 | 8.52266 | 752 ft | 161 kts | 65° |
| 2026-04-26 19:38 | 50.02722 | 8.53384 | 457 ft | 169 kts | 77° |